createdAt,value
2023-02-19T00:09:46.337Z,26.10
2023-02-19T00:19:53.913Z,26.20
2023-02-19T00:30:02.472Z,26.20
2023-02-19T00:40:10.231Z,26.10
2023-02-19T00:50:18.762Z,26.20
2023-02-19T01:00:25.572Z,26.20
2023-02-19T01:10:34.202Z,26.20
2023-02-19T01:20:43.124Z,26.20
2023-02-19T01:30:51.479Z,26.20
2023-02-19T01:40:59.660Z,26.20
2023-02-19T01:51:12.784Z,25.90
2023-02-19T02:01:19.524Z,25.80
2023-02-19T02:11:28.466Z,25.70
2023-02-19T02:22:06.457Z,25.70
2023-02-19T02:32:54.345Z,25.80
2023-02-19T02:43:04.838Z,25.70
2023-02-19T02:53:37.699Z,26.00
2023-02-19T03:03:48.034Z,26.10
2023-02-19T03:14:18.735Z,26.20
2023-02-19T03:24:48.198Z,26.20
2023-02-19T03:35:02.353Z,26.10
2023-02-19T03:45:27.388Z,26.10
2023-02-19T03:55:43.996Z,26.20
2023-02-19T04:05:55.162Z,26.20
2023-02-19T04:16:09.493Z,26.20
2023-02-19T04:26:18.165Z,26.30
2023-02-19T04:36:31.070Z,26.30
2023-02-19T04:46:38.408Z,26.30
2023-02-19T04:56:46.782Z,26.40
2023-02-19T05:06:53.657Z,26.50
2023-02-19T05:17:02.786Z,26.50
2023-02-19T05:27:09.979Z,26.60
2023-02-19T05:37:18.359Z,26.80
2023-02-19T05:47:25.303Z,26.80
2023-02-19T05:57:33.679Z,26.90
2023-02-19T06:07:42.546Z,27.00
2023-02-19T06:17:51.348Z,27.10
2023-02-19T06:27:58.590Z,27.20
2023-02-19T06:38:07.018Z,27.20
2023-02-19T06:48:14.679Z,27.20
2023-02-19T06:58:23.325Z,27.10
2023-02-19T07:08:30.113Z,27.10
2023-02-19T07:18:38.846Z,27.10
2023-02-19T07:28:46.414Z,27.00
2023-02-19T07:38:59.230Z,27.10
2023-02-19T07:49:08.211Z,27.10
2023-02-19T07:59:16.818Z,27.10
2023-02-19T08:09:23.559Z,27.10
2023-02-19T08:19:31.875Z,27.20
2023-02-19T08:29:38.953Z,27.20
2023-02-19T08:39:48.003Z,27.20
2023-02-19T08:49:54.803Z,27.30
2023-02-19T09:00:03.107Z,27.30
2023-02-19T09:10:10.716Z,27.30
2023-02-19T09:20:19.255Z,27.30
2023-02-19T09:30:26.464Z,27.30
2023-02-19T09:40:35.613Z,27.30
2023-02-19T09:50:45.243Z,27.30
2023-02-19T10:00:55.862Z,27.40
2023-02-19T10:11:04.261Z,27.40
2023-02-19T10:21:22.291Z,27.40
2023-02-19T10:31:29.991Z,27.40
2023-02-19T10:41:44.421Z,27.40
2023-02-19T10:51:51.375Z,27.40
2023-02-19T11:02:00.978Z,27.50
2023-02-19T11:12:09.663Z,27.50
2023-02-19T11:22:33.203Z,27.50
2023-02-19T11:32:40.515Z,27.50
2023-02-19T11:42:56.526Z,27.50
2023-02-19T11:53:16.664Z,27.50
2023-02-19T12:04:06.817Z,27.50
2023-02-19T12:14:36.665Z,27.60
2023-02-19T12:25:04.013Z,27.60
2023-02-19T12:35:36.260Z,27.60
2023-02-19T12:45:47.560Z,27.60
2023-02-19T12:55:58.837Z,27.60
2023-02-19T13:06:13.882Z,27.60
2023-02-19T13:16:24.329Z,27.70
2023-02-19T13:26:46.084Z,27.70
2023-02-19T13:36:55.081Z,27.70
2023-02-19T13:47:06.914Z,27.70
2023-02-19T13:57:33.169Z,27.70
2023-02-19T14:08:04.769Z,27.70
2023-02-19T14:18:43.410Z,27.70
2023-02-19T14:28:55.584Z,27.70
2023-02-19T14:39:05.266Z,27.70
2023-02-19T14:49:20.665Z,27.70
2023-02-19T14:59:32.849Z,27.80
2023-02-19T15:09:45.151Z,27.80
2023-02-19T15:19:55.404Z,27.80
2023-02-19T15:30:03.995Z,27.80
2023-02-19T15:40:11.846Z,27.80
2023-02-19T15:50:24.385Z,27.80
2023-02-19T16:00:37.513Z,27.80
2023-02-19T16:10:57.312Z,27.90
2023-02-19T16:21:07.090Z,27.90
2023-02-19T16:31:16.914Z,27.90
2023-02-19T16:41:26.176Z,27.80
2023-02-19T16:51:34.619Z,27.60
2023-02-19T17:01:41.788Z,27.50
2023-02-19T17:11:51.040Z,27.40
2023-02-19T17:21:57.861Z,27.40
2023-02-19T17:32:12.661Z,27.30
2023-02-19T17:42:19.757Z,27.30
2023-02-19T17:52:29.397Z,27.00
2023-02-19T18:02:36.973Z,26.60
2023-02-19T18:12:46.518Z,26.20
2023-02-19T18:22:54.640Z,25.90
2023-02-19T18:33:03.052Z,25.60
2023-02-19T18:43:09.868Z,25.30
2023-02-19T18:53:18.292Z,25.00
2023-02-19T19:03:25.937Z,24.80
2023-02-19T19:13:34.910Z,24.60
2023-02-19T19:23:44.767Z,24.40
2023-02-19T19:33:53.297Z,24.20
2023-02-19T19:44:00.117Z,24.00
2023-02-19T19:54:09.336Z,23.80
2023-02-19T20:04:16.160Z,23.60
2023-02-19T20:14:26.095Z,23.40
2023-02-19T20:24:33.368Z,23.30
2023-02-19T20:34:41.795Z,23.20
2023-02-19T20:44:48.706Z,23.10
2023-02-19T20:54:59.790Z,23.10
2023-02-19T21:05:06.648Z,23.00
2023-02-19T21:15:15.672Z,22.90
2023-02-19T21:25:25.141Z,22.80
2023-02-19T21:35:33.784Z,23.00
2023-02-19T21:45:40.785Z,23.00
2023-02-19T21:55:58.820Z,23.10
2023-02-19T22:06:05.851Z,23.00
2023-02-19T22:16:14.837Z,22.90
2023-02-19T22:26:23.252Z,22.80
2023-02-19T22:36:35.543Z,22.70
2023-02-19T22:46:48.439Z,22.40
2023-02-19T22:56:56.831Z,22.20
2023-02-19T23:07:03.748Z,22.00
2023-02-19T23:17:12.595Z,21.80
2023-02-19T23:27:19.332Z,21.60
2023-02-19T23:37:27.870Z,21.50
2023-02-19T23:47:34.532Z,21.50
2023-02-19T23:57:43.231Z,21.50
